createdAt,value
2023-05-21T00:01:49.589Z,98542.27
2023-05-21T00:03:54.651Z,98545.51
2023-05-21T00:05:58.651Z,98544.41
2023-05-21T00:08:05.894Z,98539.40
2023-05-21T00:10:33.515Z,98541.80
2023-05-21T00:12:38.992Z,98541.84
2023-05-21T00:14:45.230Z,98536.58
2023-05-21T00:16:59.198Z,98532.86
2023-05-21T00:19:18.488Z,98527.86
2023-05-21T00:21:45.928Z,98529.22
2023-05-21T00:24:04.147Z,98522.58
2023-05-21T00:26:09.845Z,98525.90
2023-05-21T00:28:14.242Z,98524.83
2023-05-21T00:30:17.870Z,98520.79
2023-05-21T00:32:23.534Z,98518.95
2023-05-21T00:34:26.590Z,98517.98
2023-05-21T00:36:33.223Z,98516.65
2023-05-21T00:38:38.361Z,98512.02
2023-05-21T00:40:41.354Z,98509.84
2023-05-21T00:42:48.159Z,98510.38
2023-05-21T00:44:55.894Z,98511.36
2023-05-21T00:47:04.217Z,98509.37
2023-05-21T00:49:08.443Z,98506.71
2023-05-21T00:51:18.937Z,98507.46
2023-05-21T00:53:24.112Z,98507.36
2023-05-21T00:55:31.711Z,98503.02
2023-05-21T00:57:37.458Z,98503.83
2023-05-21T00:59:44.702Z,98504.34
2023-05-21T01:01:54.020Z,98503.24
2023-05-21T01:04:04.395Z,98504.11
2023-05-21T01:06:10.863Z,98501.42
2023-05-21T01:08:16.625Z,98498.67
2023-05-21T01:10:20.842Z,98500.08
2023-05-21T01:12:25.278Z,98496.95
2023-05-21T01:14:32.229Z,98495.90
2023-05-21T01:16:43.233Z,98494.93
2023-05-21T01:18:53.531Z,98493.13
2023-05-21T01:21:02.560Z,98493.73
2023-05-21T01:23:12.156Z,98494.36
2023-05-21T01:25:17.699Z,98493.92
2023-05-21T01:27:24.196Z,98490.39
2023-05-21T01:29:30.449Z,98492.70
2023-05-21T01:31:40.290Z,98489.55
2023-05-21T01:33:57.575Z,98490.44
2023-05-21T01:36:24.892Z,98493.12
2023-05-21T01:38:44.070Z,98488.80
2023-05-21T01:41:11.479Z,98489.48
2023-05-21T01:43:16.858Z,98483.28
2023-05-21T01:45:25.179Z,98487.44
2023-05-21T01:47:40.461Z,98485.13
2023-05-21T01:49:55.074Z,98489.83
2023-05-21T01:51:59.820Z,98486.73
2023-05-21T01:54:07.255Z,98484.68
2023-05-21T01:56:12.730Z,98487.11
2023-05-21T01:58:19.303Z,98487.02
2023-05-21T02:00:25.459Z,98483.61
2023-05-21T02:02:31.456Z,98486.15
2023-05-21T02:04:38.233Z,98483.00
2023-05-21T02:06:50.904Z,98485.46
2023-05-21T02:08:58.598Z,98487.46
2023-05-21T02:11:04.358Z,98483.01
2023-05-21T02:13:08.221Z,98479.41
2023-05-21T02:15:13.858Z,98479.84
2023-05-21T02:17:20.877Z,98481.40
2023-05-21T02:19:25.214Z,98477.97
2023-05-21T02:21:29.455Z,98479.95
2023-05-21T02:23:35.754Z,98477.37
2023-05-21T02:25:40.122Z,98476.20
2023-05-21T02:27:44.967Z,98475.54
2023-05-21T02:29:53.488Z,98472.23
2023-05-21T02:31:58.921Z,98473.02
2023-05-21T02:34:08.008Z,98473.91
2023-05-21T02:36:15.872Z,98471.16
2023-05-21T02:38:23.434Z,98468.55
2023-05-21T02:40:31.364Z,98469.27
2023-05-21T02:42:41.456Z,98470.38
2023-05-21T02:44:48.575Z,98468.48
2023-05-21T02:47:03.898Z,98468.86
2023-05-21T02:49:08.376Z,98466.73
2023-05-21T02:51:22.407Z,98465.10
2023-05-21T02:53:27.875Z,98465.10
2023-05-21T02:55:35.462Z,98462.02
2023-05-21T02:57:38.614Z,98462.54
2023-05-21T02:59:41.384Z,98464.04
2023-05-21T03:01:50.947Z,98456.96
2023-05-21T03:03:57.279Z,98458.58
2023-05-21T03:06:08.463Z,98457.05
2023-05-21T03:08:16.482Z,98458.05
2023-05-21T03:10:19.358Z,98455.61
2023-05-21T03:12:25.906Z,98456.40
2023-05-21T03:14:32.601Z,98457.42
2023-05-21T03:16:37.966Z,98454.98
2023-05-21T03:18:44.325Z,98457.61
2023-05-21T03:20:47.819Z,98460.91
2023-05-21T03:22:55.309Z,98455.58
2023-05-21T03:25:06.543Z,98459.36
2023-05-21T03:27:11.997Z,98462.73
2023-05-21T03:29:16.283Z,98463.02
2023-05-21T03:31:26.783Z,98467.23
2023-05-21T03:33:54.936Z,98468.52
2023-05-21T03:36:05.537Z,98472.19
2023-05-21T03:38:19.040Z,98468.71
2023-05-21T03:40:27.319Z,98468.02
2023-05-21T03:42:31.826Z,98468.38
2023-05-21T03:44:35.517Z,98467.44
2023-05-21T03:46:50.476Z,98468.42
2023-05-21T03:49:01.213Z,98466.91
2023-05-21T03:51:04.462Z,98470.03
2023-05-21T03:53:10.107Z,98473.57
2023-05-21T03:55:13.723Z,98469.02
2023-05-21T03:57:20.737Z,98469.91
2023-05-21T03:59:29.088Z,98474.64
2023-05-21T04:01:38.903Z,98478.03
2023-05-21T04:03:43.185Z,98480.59
2023-05-21T04:05:46.344Z,98474.31
2023-05-21T04:07:53.270Z,98479.73
2023-05-21T04:10:00.718Z,98482.23
2023-05-21T04:12:07.314Z,98482.23
2023-05-21T04:14:16.370Z,98485.13
2023-05-21T04:16:22.254Z,98486.73
2023-05-21T04:18:28.347Z,98491.41
2023-05-21T04:20:32.510Z,98487.73
2023-05-21T04:22:42.440Z,98490.48
2023-05-21T04:24:49.516Z,98490.36
2023-05-21T04:26:56.285Z,98493.09
2023-05-21T04:29:05.979Z,98496.27
2023-05-21T04:31:14.789Z,98494.92
2023-05-21T04:33:20.321Z,98493.67
2023-05-21T04:35:27.553Z,98494.25
2023-05-21T04:37:35.279Z,98495.95
2023-05-21T04:39:49.993Z,98494.55
2023-05-21T04:41:55.271Z,98495.45
2023-05-21T04:44:05.551Z,98492.77
2023-05-21T04:46:11.763Z,98493.07
2023-05-21T04:48:22.705Z,98494.73
2023-05-21T04:50:33.714Z,98493.59
2023-05-21T04:52:37.762Z,98494.94
2023-05-21T04:54:42.169Z,98493.43
2023-05-21T04:56:56.322Z,98497.17
2023-05-21T04:58:59.882Z,98494.99
2023-05-21T05:01:05.266Z,98495.25
2023-05-21T05:03:44.382Z,98497.92
2023-05-21T05:05:49.499Z,98497.67
2023-05-21T05:08:03.602Z,98497.97
2023-05-21T05:10:12.019Z,98499.71
2023-05-21T05:12:16.424Z,98499.36
2023-05-21T05:14:19.891Z,98498.48
2023-05-21T05:16:28.857Z,98499.39
2023-05-21T05:18:35.654Z,98499.30
2023-05-21T05:20:41.397Z,98496.77
2023-05-21T05:22:48.137Z,98494.46
2023-05-21T05:24:53.236Z,98493.59
2023-05-21T05:26:59.427Z,98493.06
2023-05-21T05:29:05.284Z,98494.55
2023-05-21T05:31:10.216Z,98492.52
2023-05-21T05:33:19.026Z,98489.50
2023-05-21T05:35:23.168Z,98492.73
2023-05-21T05:37:34.892Z,98493.25
2023-05-21T05:39:51.621Z,98491.00
2023-05-21T05:41:56.966Z,98489.70
2023-05-21T05:44:01.510Z,98489.65
2023-05-21T05:46:09.253Z,98482.83
2023-05-21T05:48:14.489Z,98487.44
2023-05-21T05:50:19.518Z,98487.38
2023-05-21T05:52:27.863Z,98486.28
2023-05-21T05:54:37.320Z,98483.52
2023-05-21T05:56:57.989Z,98485.56
2023-05-21T05:59:04.655Z,98487.64
2023-05-21T06:01:12.355Z,98488.05
2023-05-21T06:03:18.597Z,98489.11
2023-05-21T06:05:23.424Z,98489.64
2023-05-21T06:07:28.186Z,98485.85
2023-05-21T06:09:33.891Z,98484.73
2023-05-21T06:11:41.401Z,98485.00
2023-05-21T06:13:52.355Z,98481.40
2023-05-21T06:15:57.546Z,98480.14
2023-05-21T06:18:01.754Z,98484.27
2023-05-21T06:20:14.388Z,98483.00
2023-05-21T06:22:21.263Z,98486.16
2023-05-21T06:24:26.014Z,98483.90
2023-05-21T06:26:30.163Z,98488.44
2023-05-21T06:28:37.576Z,98485.96
2023-05-21T06:30:42.070Z,98486.59
2023-05-21T06:32:50.215Z,98481.96
2023-05-21T06:34:55.849Z,98478.63
2023-05-21T06:37:05.763Z,98478.61
2023-05-21T06:39:11.330Z,98476.23
2023-05-21T06:41:15.205Z,98476.96
2023-05-21T06:43:32.727Z,98478.33
2023-05-21T06:46:12.153Z,98479.50
2023-05-21T06:48:17.717Z,98480.63
2023-05-21T06:50:28.234Z,98480.39
2023-05-21T06:52:32.244Z,98480.98
2023-05-21T06:54:40.552Z,98482.49
2023-05-21T06:56:48.763Z,98480.79
2023-05-21T06:58:59.794Z,98483.98
2023-05-21T07:01:05.213Z,98482.55
2023-05-21T07:03:25.156Z,98486.08
2023-05-21T07:05:35.199Z,98483.17
2023-05-21T07:07:39.584Z,98482.05
2023-05-21T07:09:45.082Z,98482.64
2023-05-21T07:12:05.572Z,98483.40
2023-05-21T07:14:11.498Z,98487.73
2023-05-21T07:16:18.014Z,98481.90
2023-05-21T07:18:23.325Z,98483.41
2023-05-21T07:20:26.742Z,98483.23
2023-05-21T07:22:31.595Z,98481.52
2023-05-21T07:24:34.681Z,98483.41
2023-05-21T07:26:56.044Z,98488.89
2023-05-21T07:29:07.133Z,98483.14
2023-05-21T07:31:15.751Z,98480.04
2023-05-21T07:33:28.102Z,98477.73
2023-05-21T07:35:32.342Z,98478.37
2023-05-21T07:37:36.081Z,98480.58
2023-05-21T07:39:50.814Z,98481.88
2023-05-21T07:41:53.737Z,98480.95
2023-05-21T07:43:57.552Z,98482.08
2023-05-21T07:46:02.614Z,98483.10
2023-05-21T07:48:08.574Z,98478.11
2023-05-21T07:50:16.296Z,98476.64
2023-05-21T07:52:19.228Z,98478.05
2023-05-21T07:54:31.598Z,98473.21
2023-05-21T07:56:35.985Z,98476.11
2023-05-21T07:58:45.940Z,98471.40
2023-05-21T08:00:56.781Z,98472.02
2023-05-21T08:03:08.643Z,98472.02
2023-05-21T08:05:19.578Z,98474.05
2023-05-21T08:07:25.632Z,98478.43
2023-05-21T08:09:42.143Z,98474.13
2023-05-21T08:11:49.623Z,98478.73
2023-05-21T08:13:58.253Z,98479.10
2023-05-21T08:16:09.386Z,98478.63
2023-05-21T08:18:22.134Z,98479.25
2023-05-21T08:20:31.496Z,98480.13
2023-05-21T08:22:43.912Z,98483.98
2023-05-21T08:24:48.889Z,98487.13
2023-05-21T08:26:55.751Z,98489.48
2023-05-21T08:29:06.399Z,98490.80
2023-05-21T08:31:14.676Z,98489.33
2023-05-21T08:33:21.084Z,98489.03
2023-05-21T08:35:31.761Z,98488.89
2023-05-21T08:38:13.291Z,98483.61
2023-05-21T08:40:31.243Z,98484.40
2023-05-21T08:42:50.658Z,98483.40
2023-05-21T08:45:05.906Z,98482.71
2023-05-21T08:47:15.053Z,98480.70
2023-05-21T08:49:27.587Z,98482.30
2023-05-21T08:51:32.206Z,98479.05
2023-05-21T08:53:36.830Z,98475.03
2023-05-21T08:55:48.879Z,98476.14
2023-05-21T08:57:56.696Z,98474.77
2023-05-21T09:00:00.666Z,98476.14
2023-05-21T09:02:05.661Z,98474.13
2023-05-21T09:04:20.825Z,98470.80
2023-05-21T09:06:29.525Z,98470.45
2023-05-21T09:08:38.636Z,98470.23
2023-05-21T09:11:03.162Z,98470.70
2023-05-21T09:13:21.797Z,98466.41
2023-05-21T09:15:27.718Z,98472.75
2023-05-21T09:17:35.161Z,98470.60
2023-05-21T09:20:17.781Z,98471.04
2023-05-21T09:22:28.296Z,98468.56
2023-05-21T09:24:36.237Z,98466.46
2023-05-21T09:26:51.904Z,98468.39
2023-05-21T09:28:59.931Z,98468.44
2023-05-21T09:31:10.967Z,98466.67
2023-05-21T09:33:29.999Z,98461.98
2023-05-21T09:35:36.299Z,98464.94
2023-05-21T09:37:46.418Z,98463.91
2023-05-21T09:39:50.622Z,98463.13
2023-05-21T09:41:53.813Z,98466.66
2023-05-21T09:44:01.718Z,98464.08
2023-05-21T09:46:05.960Z,98466.48
2023-05-21T09:48:16.854Z,98469.52
2023-05-21T09:50:36.950Z,98467.73
2023-05-21T09:52:42.115Z,98460.45
2023-05-21T09:54:46.111Z,98456.43
2023-05-21T09:56:52.578Z,98461.65
2023-05-21T09:58:57.544Z,98464.98
2023-05-21T10:01:04.779Z,98465.54
2023-05-21T10:03:12.742Z,98467.49
2023-05-21T10:05:23.030Z,98464.45
2023-05-21T10:07:31.458Z,98463.52
2023-05-21T10:09:49.596Z,98462.38
2023-05-21T10:11:55.232Z,98459.27
2023-05-21T10:14:09.150Z,98465.03
2023-05-21T10:16:15.037Z,98460.59
2023-05-21T10:18:19.229Z,98461.10
2023-05-21T10:20:23.133Z,98455.30
2023-05-21T10:22:39.062Z,98452.02
2023-05-21T10:24:52.053Z,98448.36
2023-05-21T10:26:58.771Z,98447.64
2023-05-21T10:29:04.903Z,98450.17
2023-05-21T10:31:10.770Z,98440.23
2023-05-21T10:33:19.090Z,98436.34
2023-05-21T10:35:25.084Z,98437.08
2023-05-21T10:37:30.991Z,98433.36
2023-05-21T10:39:40.549Z,98437.62
2023-05-21T10:42:37.690Z,98440.22
2023-05-21T10:49:04.106Z,98433.62
2023-05-21T10:55:16.882Z,98430.27
2023-05-21T10:57:58.657Z,98423.77
2023-05-21T11:00:02.652Z,98423.49
2023-05-21T11:02:07.758Z,98420.31
2023-05-21T11:04:16.899Z,98422.38
2023-05-21T11:06:25.350Z,98415.79
2023-05-21T11:08:31.871Z,98413.05
2023-05-21T11:10:41.584Z,98408.70
2023-05-21T11:13:13.654Z,98418.79
2023-05-21T11:15:19.838Z,98414.73
2023-05-21T11:17:42.507Z,98422.39
2023-05-21T11:22:28.332Z,98419.09
2023-05-21T11:24:36.612Z,98418.30
2023-05-21T11:26:47.960Z,98415.23
2023-05-21T11:29:06.805Z,98420.72
2023-05-21T11:31:37.238Z,98422.40
2023-05-21T11:33:40.826Z,98418.33
2023-05-21T11:35:46.722Z,98411.54
2023-05-21T11:37:55.020Z,98402.48
2023-05-21T11:40:33.432Z,98407.83
2023-05-21T11:42:49.825Z,98401.09
2023-05-21T11:44:54.549Z,98397.63
2023-05-21T11:46:57.939Z,98398.08
2023-05-21T11:49:01.212Z,98396.21
2023-05-21T11:51:04.407Z,98399.85
2023-05-21T11:53:09.103Z,98399.11
2023-05-21T11:55:13.652Z,98398.13
2023-05-21T11:57:31.340Z,98390.92
2023-05-21T11:59:35.252Z,98401.70
2023-05-21T12:01:42.933Z,98403.39
2023-05-21T12:03:45.849Z,98405.98
2023-05-21T12:05:49.605Z,98404.98
2023-05-21T12:07:55.711Z,98406.40
2023-05-21T12:10:04.629Z,98401.86
2023-05-21T12:12:22.772Z,98404.69
2023-05-21T12:14:27.529Z,98407.61
2023-05-21T12:16:31.058Z,98403.65
2023-05-21T12:18:34.057Z,98399.73
2023-05-21T12:20:39.085Z,98400.74
2023-05-21T12:22:45.032Z,98397.22
2023-05-21T12:24:49.653Z,98401.07
2023-05-21T12:26:52.967Z,98398.02
2023-05-21T12:28:57.384Z,98395.80
2023-05-21T12:31:00.627Z,98396.23
2023-05-21T12:33:04.435Z,98397.36
2023-05-21T12:35:07.831Z,98400.66
2023-05-21T12:37:28.853Z,98393.05
2023-05-21T12:39:39.634Z,98394.57
2023-05-21T12:41:44.306Z,98392.73
2023-05-21T12:43:47.134Z,98391.15
2023-05-21T12:45:52.258Z,98392.60
2023-05-21T12:47:56.557Z,98392.11
2023-05-21T12:50:02.450Z,98394.70
2023-05-21T12:52:45.623Z,98393.39
2023-05-21T12:54:52.618Z,98394.70
2023-05-21T12:56:56.822Z,98393.92
2023-05-21T12:59:00.678Z,98383.71
2023-05-21T13:01:07.164Z,98388.43
2023-05-21T13:03:09.840Z,98383.23
2023-05-21T13:05:20.333Z,98384.61
2023-05-21T13:07:24.148Z,98382.73
2023-05-21T13:09:27.274Z,98378.55
2023-05-21T13:11:30.139Z,98377.58
2023-05-21T13:13:33.221Z,98378.60
2023-05-21T13:15:36.427Z,98377.82
2023-05-21T13:17:41.882Z,98380.05
2023-05-21T13:20:15.928Z,98377.92
2023-05-21T13:22:18.708Z,98374.39
2023-05-21T13:24:21.607Z,98370.90
2023-05-21T13:26:25.385Z,98366.71
2023-05-21T13:28:29.937Z,98366.84
2023-05-21T13:30:36.031Z,98371.89
2023-05-21T13:32:40.318Z,98364.62
2023-05-21T13:34:44.048Z,98365.37
2023-05-21T13:36:46.861Z,98366.48
2023-05-21T13:38:51.969Z,98365.79
2023-05-21T13:40:57.137Z,98368.05
2023-05-21T13:43:00.198Z,98366.91
2023-05-21T13:45:11.807Z,98364.14
2023-05-21T13:47:16.925Z,98364.25
2023-05-21T13:49:25.140Z,98367.59
2023-05-21T13:51:38.637Z,98366.70
2023-05-21T13:53:44.844Z,98369.92
2023-05-21T13:55:47.648Z,98367.48
2023-05-21T13:57:51.190Z,98362.42
2023-05-21T13:59:54.749Z,98362.52
2023-05-21T14:01:58.289Z,98366.64
2023-05-21T14:04:04.506Z,98370.52
2023-05-21T14:06:08.429Z,98365.84
2023-05-21T14:08:14.178Z,98365.11
2023-05-21T14:10:25.002Z,98365.00
2023-05-21T14:12:28.865Z,98362.06
2023-05-21T14:14:32.418Z,98366.13
2023-05-21T14:16:37.181Z,98363.23
2023-05-21T14:18:40.065Z,98359.58
2023-05-21T14:20:42.895Z,98359.84
2023-05-21T14:22:48.455Z,98357.63
2023-05-21T14:24:51.635Z,98358.27
2023-05-21T14:26:56.064Z,98355.25
2023-05-21T14:28:59.020Z,98357.33
2023-05-21T14:31:01.841Z,98360.21
2023-05-21T14:33:05.382Z,98356.84
2023-05-21T14:35:10.273Z,98350.05
2023-05-21T14:37:13.312Z,98348.98
2023-05-21T14:39:17.868Z,98353.64
2023-05-21T14:41:27.605Z,98354.18
2023-05-21T14:43:30.592Z,98355.38
2023-05-21T14:45:36.845Z,98351.02
2023-05-21T14:47:39.920Z,98349.65
2023-05-21T14:49:42.897Z,98349.13
2023-05-21T14:51:47.560Z,98345.96
2023-05-21T14:53:51.494Z,98343.17
2023-05-21T14:55:54.580Z,98347.14
2023-05-21T14:57:57.498Z,98345.86
2023-05-21T15:00:04.280Z,98345.54
2023-05-21T15:02:10.847Z,98342.85
2023-05-21T15:04:24.076Z,98343.41
2023-05-21T15:06:30.151Z,98341.40
2023-05-21T15:08:35.166Z,98337.86
2023-05-21T15:10:39.182Z,98341.05
2023-05-21T15:12:42.594Z,98342.59
2023-05-21T15:14:45.576Z,98342.48
2023-05-21T15:16:48.462Z,98343.77
2023-05-21T15:18:52.103Z,98343.92
2023-05-21T15:20:57.192Z,98341.25
2023-05-21T15:23:12.695Z,98346.23
2023-05-21T15:25:20.196Z,98340.95
2023-05-21T15:27:27.296Z,98337.55
2023-05-21T15:29:31.866Z,98336.52
2023-05-21T15:31:35.073Z,98334.58
2023-05-21T15:33:39.150Z,98330.41
2023-05-21T15:35:44.507Z,98334.64
2023-05-21T15:37:51.630Z,98331.56
2023-05-21T15:39:55.832Z,98329.34
2023-05-21T15:42:00.811Z,98329.93
2023-05-21T15:44:04.973Z,98326.73
2023-05-21T15:46:09.673Z,98324.91
2023-05-21T15:48:14.146Z,98321.85
2023-05-21T15:50:19.758Z,98319.71
2023-05-21T15:52:23.650Z,98324.33
2023-05-21T15:54:29.197Z,98321.01
2023-05-21T15:56:32.418Z,98322.08
2023-05-21T15:58:35.474Z,98316.73
2023-05-21T16:00:38.768Z,98316.09
2023-05-21T16:02:44.464Z,98314.41
2023-05-21T16:04:53.598Z,98310.46
2023-05-21T16:06:56.693Z,98311.59
2023-05-21T16:09:04.983Z,98310.39
2023-05-21T16:11:09.332Z,98309.92
2023-05-21T16:13:12.429Z,98309.88
2023-05-21T16:15:17.028Z,98315.36
2023-05-21T16:17:21.969Z,98309.52
2023-05-21T16:19:27.673Z,98306.16
2023-05-21T16:21:32.212Z,98303.44
2023-05-21T16:23:36.308Z,98300.92
2023-05-21T16:25:41.123Z,98302.82
2023-05-21T16:27:48.058Z,98304.59
2023-05-21T16:29:51.536Z,98300.03
2023-05-21T16:31:56.586Z,98303.39
2023-05-21T16:33:59.326Z,98303.16
2023-05-21T16:36:02.968Z,98302.20
2023-05-21T16:38:07.484Z,98301.31
2023-05-21T16:40:13.902Z,98301.84
2023-05-21T16:42:16.724Z,98297.23
2023-05-21T16:44:21.551Z,98299.42
2023-05-21T16:46:28.962Z,98294.19
2023-05-21T16:48:39.522Z,98289.91
2023-05-21T16:50:49.728Z,98288.48
2023-05-21T16:52:55.115Z,98295.65
2023-05-21T16:55:00.704Z,98290.90
2023-05-21T16:57:06.579Z,98292.73
2023-05-21T16:59:09.962Z,98290.91
2023-05-21T17:01:18.652Z,98291.50
2023-05-21T17:03:21.945Z,98292.54
2023-05-21T17:05:26.492Z,98291.66
2023-05-21T17:07:31.762Z,98288.84
2023-05-21T17:09:36.414Z,98287.36
2023-05-21T17:11:42.169Z,98291.37
2023-05-21T17:13:49.369Z,98291.34
2023-05-21T17:15:58.813Z,98290.06
2023-05-21T17:18:04.435Z,98293.26
2023-05-21T17:20:19.002Z,98290.94
2023-05-21T17:22:28.621Z,98291.52
2023-05-21T17:24:33.884Z,98287.55
2023-05-21T17:26:38.978Z,98287.76
2023-05-21T17:28:41.940Z,98289.96
2023-05-21T17:30:46.360Z,98292.17
2023-05-21T17:32:52.790Z,98292.39
2023-05-21T17:34:55.795Z,98294.33
2023-05-21T17:37:00.490Z,98295.64
2023-05-21T17:39:05.077Z,98294.52
2023-05-21T17:41:08.171Z,98300.20
2023-05-21T17:43:13.335Z,98304.97
2023-05-21T17:45:17.301Z,98302.57
2023-05-21T17:47:20.675Z,98299.98
2023-05-21T17:49:24.630Z,98301.78
2023-05-21T17:51:29.152Z,98306.09
2023-05-21T17:53:32.936Z,98305.45
2023-05-21T17:55:37.470Z,98306.23
2023-05-21T17:57:44.746Z,98306.30
2023-05-21T17:59:51.288Z,98309.40
2023-05-21T18:01:54.479Z,98311.46
2023-05-21T18:03:57.399Z,98312.21
2023-05-21T18:06:01.849Z,98311.94
2023-05-21T18:08:07.320Z,98313.87
2023-05-21T18:10:15.714Z,98311.45
2023-05-21T18:12:19.228Z,98313.61
2023-05-21T18:14:22.629Z,98313.09
2023-05-21T18:16:25.528Z,98310.79
2023-05-21T18:18:32.588Z,98315.05
2023-05-21T18:20:37.289Z,98320.18
2023-05-21T18:22:42.096Z,98318.38
2023-05-21T18:24:46.754Z,98318.64
2023-05-21T18:26:50.161Z,98319.78
2023-05-21T18:28:58.977Z,98319.83
2023-05-21T18:31:04.616Z,98319.48
2023-05-21T18:33:08.784Z,98323.83
2023-05-21T18:35:15.768Z,98326.98
2023-05-21T18:37:20.369Z,98333.20
2023-05-21T18:39:24.890Z,98333.02
2023-05-21T18:41:30.566Z,98330.90
2023-05-21T18:43:33.402Z,98333.05
2023-05-21T18:45:36.281Z,98335.41
2023-05-21T18:47:40.305Z,98334.91
2023-05-21T18:49:44.233Z,98334.12
2023-05-21T18:51:48.692Z,98336.59
2023-05-21T18:53:53.468Z,98339.17
2023-05-21T18:55:56.073Z,98346.22
2023-05-21T18:57:59.168Z,98346.30
2023-05-21T19:00:02.245Z,98343.19
2023-05-21T19:02:05.409Z,98349.17
2023-05-21T19:04:09.309Z,98346.65
2023-05-21T19:06:18.949Z,98350.15
2023-05-21T19:08:22.989Z,98351.79
2023-05-21T19:10:27.773Z,98353.91
2023-05-21T19:12:31.796Z,98354.98
2023-05-21T19:14:37.536Z,98360.39
2023-05-21T19:16:40.975Z,98360.52
2023-05-21T19:18:44.506Z,98361.45
2023-05-21T19:20:47.650Z,98363.80
2023-05-21T19:22:51.099Z,98365.66
2023-05-21T19:24:54.435Z,98370.84
2023-05-21T19:27:00.449Z,98372.69
2023-05-21T19:29:05.882Z,98376.39
2023-05-21T19:31:10.439Z,98374.89
2023-05-21T19:33:15.708Z,98377.59
2023-05-21T19:35:19.686Z,98379.88
2023-05-21T19:37:23.470Z,98379.93
2023-05-21T19:39:31.250Z,98384.91
2023-05-21T19:41:55.137Z,98384.48
2023-05-21T19:43:58.303Z,98386.20
2023-05-21T19:46:04.019Z,98391.08
2023-05-21T19:48:09.053Z,98396.05
2023-05-21T19:50:16.171Z,98396.27
2023-05-21T19:52:20.996Z,98397.41
2023-05-21T19:54:24.910Z,98396.65
2023-05-21T19:56:28.094Z,98397.67
2023-05-21T19:58:33.767Z,98396.63
2023-05-21T20:00:39.382Z,98399.88
2023-05-21T20:02:43.080Z,98398.84
2023-05-21T20:04:46.054Z,98398.45
2023-05-21T20:06:49.061Z,98401.31
2023-05-21T20:08:52.559Z,98395.29
2023-05-21T20:10:55.619Z,98398.98
2023-05-21T20:12:58.584Z,98399.17
2023-05-21T20:15:04.857Z,98401.78
2023-05-21T20:17:08.151Z,98404.64
2023-05-21T20:19:11.990Z,98405.02
2023-05-21T20:21:22.820Z,98407.33
2023-05-21T20:23:25.979Z,98406.93
2023-05-21T20:25:29.982Z,98407.30
2023-05-21T20:27:35.224Z,98400.82
2023-05-21T20:29:38.065Z,98405.04
2023-05-21T20:31:45.298Z,98404.92
2023-05-21T20:33:50.775Z,98404.14
2023-05-21T20:35:53.774Z,98406.29
2023-05-21T20:37:56.514Z,98405.76
2023-05-21T20:40:00.000Z,98407.02
2023-05-21T20:42:08.596Z,98402.42
2023-05-21T20:44:12.078Z,98406.77
2023-05-21T20:46:18.773Z,98405.64
2023-05-21T20:48:22.275Z,98406.94
2023-05-21T20:50:26.110Z,98407.66
2023-05-21T20:52:29.466Z,98406.63
2023-05-21T20:54:32.755Z,98403.54
2023-05-21T20:56:41.992Z,98399.39
2023-05-21T20:58:48.772Z,98399.55
2023-05-21T21:00:52.217Z,98401.04
2023-05-21T21:03:01.402Z,98400.30
2023-05-21T21:05:04.640Z,98400.16
2023-05-21T21:07:10.396Z,98403.56
2023-05-21T21:09:13.272Z,98406.91
2023-05-21T21:11:16.675Z,98405.71
2023-05-21T21:13:19.860Z,98406.30
2023-05-21T21:15:22.991Z,98410.41
2023-05-21T21:17:26.567Z,98411.38
2023-05-21T21:19:29.454Z,98413.07
2023-05-21T21:21:32.605Z,98412.82
2023-05-21T21:23:36.235Z,98413.48
2023-05-21T21:25:39.017Z,98409.77
2023-05-21T21:27:44.004Z,98414.75
2023-05-21T21:29:48.121Z,98409.05
2023-05-21T21:31:53.398Z,98411.21
2023-05-21T21:33:56.551Z,98409.38
2023-05-21T21:36:01.771Z,98405.84
2023-05-21T21:38:05.426Z,98409.77
2023-05-21T21:40:09.696Z,98407.77
2023-05-21T21:42:14.422Z,98411.13
2023-05-21T21:44:18.415Z,98409.30
2023-05-21T21:46:25.041Z,98411.61
2023-05-21T21:48:29.310Z,98408.70
2023-05-21T21:50:32.201Z,98402.64
2023-05-21T21:52:40.327Z,98402.69
2023-05-21T21:54:43.395Z,98403.48
2023-05-21T21:56:48.811Z,98409.91
2023-05-21T21:58:51.529Z,98408.05
2023-05-21T22:00:55.963Z,98402.86
2023-05-21T22:02:59.383Z,98406.45
2023-05-21T22:05:02.530Z,98408.21
2023-05-21T22:07:05.858Z,98407.08
2023-05-21T22:09:08.796Z,98405.84
2023-05-21T22:11:12.270Z,98400.48
2023-05-21T22:13:16.820Z,98399.91
2023-05-21T22:15:28.826Z,98401.64
2023-05-21T22:17:32.959Z,98401.58
2023-05-21T22:19:36.386Z,98401.83
2023-05-21T22:21:40.022Z,98399.83
2023-05-21T22:23:44.172Z,98398.73
2023-05-21T22:25:49.621Z,98397.77
2023-05-21T22:27:52.718Z,98399.50
2023-05-21T22:29:55.790Z,98395.58
2023-05-21T22:31:58.579Z,98399.29
2023-05-21T22:34:01.368Z,98405.82
2023-05-21T22:36:04.889Z,98406.27
2023-05-21T22:38:08.093Z,98404.38
2023-05-21T22:40:11.422Z,98409.27
2023-05-21T22:42:14.231Z,98408.65
2023-05-21T22:44:17.117Z,98407.33
2023-05-21T22:46:20.335Z,98409.99
2023-05-21T22:48:23.639Z,98414.32
2023-05-21T22:50:29.551Z,98411.41
2023-05-21T22:52:43.495Z,98409.25
2023-05-21T22:54:46.386Z,98413.58
2023-05-21T22:56:50.964Z,98417.98
2023-05-21T22:58:54.972Z,98415.74
2023-05-21T23:01:03.072Z,98412.70
2023-05-21T23:03:06.065Z,98415.11
2023-05-21T23:05:09.162Z,98418.84
2023-05-21T23:07:12.722Z,98414.52
2023-05-21T23:09:15.507Z,98414.55
2023-05-21T23:11:18.182Z,98419.23
2023-05-21T23:13:23.724Z,98421.23
2023-05-21T23:15:29.655Z,98422.08
2023-05-21T23:17:33.080Z,98422.89
2023-05-21T23:19:36.390Z,98425.05
2023-05-21T23:21:39.453Z,98423.42
2023-05-21T23:23:42.249Z,98424.95
2023-05-21T23:25:45.808Z,98426.33
2023-05-21T23:27:52.280Z,98426.00
2023-05-21T23:29:56.002Z,98426.49
2023-05-21T23:32:01.048Z,98426.36
2023-05-21T23:34:07.276Z,98425.13
2023-05-21T23:36:12.329Z,98423.88
2023-05-21T23:38:17.535Z,98421.45
2023-05-21T23:40:20.673Z,98425.92
2023-05-21T23:42:23.783Z,98420.91
2023-05-21T23:44:27.618Z,98419.80
2023-05-21T23:46:31.823Z,98420.72
2023-05-21T23:48:37.262Z,98419.66
2023-05-21T23:50:41.037Z,98419.86
2023-05-21T23:52:44.341Z,98418.47
2023-05-21T23:54:48.700Z,98420.02
2023-05-21T23:56:51.790Z,98419.73
2023-05-21T23:58:56.178Z,98419.27
